Virgem Das Dores — CUBQ-8 — position and weather

sailwx.info

Track history (hours):
 
Tides and Currents Weather Stations Pressure Air Temp Water Temp Dewpoint Dewpoint Depression Visibility Wind Speed Wind Dir Waves Ship Positions

Virgem Das Dores

Last reported at 2018-Feb-23 10:37 UTC. Time now 2018-Feb-25 03:39 UTC.
Position N 41°11' W 008°42'.

Length 22 m.

Type: Fishing. MMSI: 204248000.

Date/timePositionNaut miles runAvg speedWind from/ knotsBaromVisibWave heightAir tempDewpointWater temp
2018-Feb-23 10:37N 41°11' W 008°42'0 0.0
2018-Feb-23 10:30N 41°11' W 008°42'0 0.0
2018-Feb-23 10:00N 41°11' W 008°42'0 0.0
2018-Feb-23 09:30N 41°11' W 008°42'0 0.0
2018-Feb-21 10:37N 41°11' W 008°42'0 0.0
2018-Feb-21 10:30N 41°11' W 008°42'0 0.0
2018-Feb-21 10:00N 41°11' W 008°42'0 0.0
2018-Feb-21 09:30N 41°11' W 008°42'1 0.0
2018-Feb-20 10:04N 41°10' W 008°42'110.0
2018-Feb-20 10:00N 41°10' W 008°42'3 0.2
2018-Feb-19 20:06N 41°07' W 008°43'110.7
2018-Feb-19 20:00N 41°08' W 008°42'3 5.8
2018-Feb-19 19:29N 41°11' W 008°42'0 0.0
2018-Feb-19 18:59N 41°11' W 008°42'0 0.0
2018-Feb-19 18:30N 41°11' W 008°42'0 0.0
2018-Feb-19 10:31N 41°11' W 008°42'0 0.0
2018-Feb-19 10:30N 41°11' W 008°42'0 0.0
2018-Feb-19 10:00N 41°11' W 008°42'0 0.1
2018-Feb-19 09:30N 41°11' W 008°42'0 0.0
2018-Feb-19 09:00N 41°11' W 008°42'0 0.0
2018-Feb-19 08:31N 41°11' W 008°42'4 7.1
2018-Feb-19 07:53N 41°06' W 008°43'1 0.1
2018-Feb-18 22:08N 41°07' W 008°43'110.5
2018-Feb-18 22:01N 41°08' W 008°43'3 5.2
2018-Feb-18 21:31N 41°11' W 008°42'  
2018-Feb-16 10:46N 41°11' W 008°42'0 0.0
2018-Feb-16 10:30N 41°11' W 008°42'0 0.0
2018-Feb-16 10:00N 41°11' W 008°42'0 0.0
2018-Feb-16 09:30N 41°11' W 008°42'0 0.0
2018-Feb-14 10:46N 41°11' W 008°42'0 0.0
2018-Feb-14 10:30N 41°11' W 008°42'0 0.0
2018-Feb-14 10:00N 41°11' W 008°42'0 0.0
2018-Feb-14 09:30N 41°11' W 008°42'  
Track history (hours):
 
Tides and Currents Weather Stations Pressure Air Temp Water Temp Dewpoint Dewpoint Depression Visibility Wind Speed Wind Dir Waves Ship Positions

Virgem Das Dores

Last reported at 2018-Feb-23 10:37 UTC. Time now 2018-Feb-25 03:39 UTC.
Position N 41°11' W 008°42'.

Length 22 m.

Type: Fishing. MMSI: 204248000.

Date/timePositionNaut miles runAvg speedWind from/ knotsBaromVisibWave heightAir tempDewpointWater temp
2018-Feb-23 10:37N 41°11' W 008°42'0 0.0
2018-Feb-23 10:30N 41°11' W 008°42'0 0.0
2018-Feb-23 10:00N 41°11' W 008°42'0 0.0
2018-Feb-23 09:30N 41°11' W 008°42'0 0.0
2018-Feb-21 10:37N 41°11' W 008°42'0 0.0
2018-Feb-21 10:30N 41°11' W 008°42'0 0.0
2018-Feb-21 10:00N 41°11' W 008°42'0 0.0
2018-Feb-21 09:30N 41°11' W 008°42'1 0.0
2018-Feb-20 10:04N 41°10' W 008°42'110.0
2018-Feb-20 10:00N 41°10' W 008°42'3 0.2
2018-Feb-19 20:06N 41°07' W 008°43'110.7
2018-Feb-19 20:00N 41°08' W 008°42'3 5.8
2018-Feb-19 19:29N 41°11' W 008°42'0 0.0
2018-Feb-19 18:59N 41°11' W 008°42'0 0.0
2018-Feb-19 18:30N 41°11' W 008°42'0 0.0
2018-Feb-19 10:31N 41°11' W 008°42'0 0.0
2018-Feb-19 10:30N 41°11' W 008°42'0 0.0
2018-Feb-19 10:00N 41°11' W 008°42'0 0.1
2018-Feb-19 09:30N 41°11' W 008°42'0 0.0
2018-Feb-19 09:00N 41°11' W 008°42'0 0.0
2018-Feb-19 08:31N 41°11' W 008°42'4 7.1
2018-Feb-19 07:53N 41°06' W 008°43'1 0.1
2018-Feb-18 22:08N 41°07' W 008°43'110.5
2018-Feb-18 22:01N 41°08' W 008°43'3 5.2
2018-Feb-18 21:31N 41°11' W 008°42'  
2018-Feb-16 10:46N 41°11' W 008°42'0 0.0
2018-Feb-16 10:30N 41°11' W 008°42'0 0.0
2018-Feb-16 10:00N 41°11' W 008°42'0 0.0
2018-Feb-16 09:30N 41°11' W 008°42'0 0.0
2018-Feb-14 10:46N 41°11' W 008°42'0 0.0
2018-Feb-14 10:30N 41°11' W 008°42'0 0.0
2018-Feb-14 10:00N 41°11' W 008°42'0 0.0
2018-Feb-14 09:30N 41°11' W 008°42'  

Dump ship's entire track history